createdAt,value
2023-02-11T00:00:14.900Z,100450.24
2023-02-11T00:05:38.403Z,100450.52
2023-02-11T00:10:42.179Z,100451.71
2023-02-11T00:15:45.553Z,100448.17
2023-02-11T00:20:51.422Z,100439.86
2023-02-11T00:26:13.282Z,100440.48
2023-02-11T00:31:23.702Z,100427.42
2023-02-11T00:36:29.275Z,100419.65
2023-02-11T00:41:33.181Z,100416.16
2023-02-11T00:46:40.666Z,100411.60
2023-02-11T00:51:46.982Z,100405.62
2023-02-11T00:56:54.994Z,100405.55
2023-02-11T01:02:01.254Z,100389.06
2023-02-11T01:07:14.011Z,100378.20
2023-02-11T01:12:20.306Z,100368.20
2023-02-11T01:17:39.401Z,100351.62
2023-02-11T01:22:51.963Z,100333.48
2023-02-11T01:27:55.333Z,100313.99
2023-02-11T01:32:59.414Z,100305.98
2023-02-11T01:38:08.705Z,100311.61
2023-02-11T01:43:20.202Z,100312.47
2023-02-11T01:48:42.915Z,100306.02
2023-02-11T01:54:05.571Z,100290.79
2023-02-11T01:59:18.052Z,100294.77
2023-02-11T02:04:23.412Z,100273.20
2023-02-11T02:09:35.300Z,100249.17
2023-02-11T02:14:41.682Z,100250.90
2023-02-11T02:20:17.557Z,100247.13
2023-02-11T02:25:59.477Z,100258.42
2023-02-11T02:31:18.679Z,100261.93
2023-02-11T02:36:35.063Z,100254.36
2023-02-11T02:41:39.494Z,100265.40
2023-02-11T02:46:42.803Z,100263.52
2023-02-11T02:51:53.182Z,100253.28
2023-02-11T02:57:48.551Z,100238.38
2023-02-11T03:03:16.730Z,100221.55
2023-02-11T03:08:26.361Z,100213.23
2023-02-11T03:13:33.826Z,100210.17
2023-02-11T03:18:41.095Z,100208.39
2023-02-11T03:23:50.903Z,100191.02
2023-02-11T03:29:16.115Z,100159.73
2023-02-11T03:34:23.993Z,100128.64
2023-02-11T03:39:36.969Z,100109.95
2023-02-11T03:44:48.821Z,100094.09
2023-02-11T03:49:55.068Z,100084.61
2023-02-11T03:55:00.824Z,100087.43
2023-02-11T04:00:04.847Z,100078.17
2023-02-11T04:05:16.472Z,100080.46
2023-02-11T04:10:20.075Z,100081.04
2023-02-11T04:15:24.037Z,100068.56
2023-02-11T04:20:27.598Z,100055.73
2023-02-11T04:25:31.771Z,100048.52
2023-02-11T04:30:35.134Z,100037.69
2023-02-11T04:35:41.533Z,100028.23
2023-02-11T04:40:45.660Z,100016.25
2023-02-11T04:45:49.560Z,100008.59
2023-02-11T04:50:53.587Z,100007.05
2023-02-11T04:55:57.281Z,100007.15
2023-02-11T05:01:10.196Z,100010.63
2023-02-11T05:06:13.693Z,100007.92
2023-02-11T05:11:22.186Z,100022.09
2023-02-11T05:16:37.113Z,100038.55
2023-02-11T05:21:50.352Z,100023.94
2023-02-11T05:27:00.469Z,100017.19
2023-02-11T05:32:04.279Z,100016.77
2023-02-11T05:37:15.852Z,100005.55
2023-02-11T05:42:33.743Z,100007.33
2023-02-11T05:47:39.464Z,100012.67
2023-02-11T05:52:43.922Z,100017.71
2023-02-11T05:57:47.489Z,100017.83
2023-02-11T06:02:55.050Z,100023.91
2023-02-11T06:07:59.053Z,100033.73
2023-02-11T06:13:02.470Z,100052.41
2023-02-11T06:18:06.306Z,100045.70
2023-02-11T06:23:10.340Z,100015.20
2023-02-11T06:28:13.865Z,99979.80
2023-02-11T06:33:18.200Z,99914.16
2023-02-11T06:38:21.753Z,99878.54
2023-02-11T06:43:25.305Z,99899.96
2023-02-11T06:48:28.605Z,99908.22
2023-02-11T06:53:35.666Z,99913.83
2023-02-11T06:58:39.078Z,99916.08
2023-02-11T07:03:46.006Z,99917.14
2023-02-11T07:08:52.075Z,99929.48
2023-02-11T07:14:00.735Z,99931.59
2023-02-11T07:19:04.151Z,99939.70
2023-02-11T07:24:11.171Z,99936.66
2023-02-11T07:29:16.538Z,99943.70
2023-02-11T07:34:39.955Z,99937.00
2023-02-11T07:39:43.881Z,99922.78
2023-02-11T07:44:50.278Z,99903.16
2023-02-11T07:49:56.466Z,99892.61
2023-02-11T07:55:04.868Z,99894.83
2023-02-11T08:00:11.333Z,99893.23
2023-02-11T08:05:15.074Z,99893.41
2023-02-11T08:10:24.312Z,99897.48
2023-02-11T08:15:47.104Z,99896.08
2023-02-11T08:20:50.832Z,99892.67
2023-02-11T08:26:03.861Z,99888.22
2023-02-11T08:31:15.113Z,99891.98
2023-02-11T08:36:27.346Z,99888.91
2023-02-11T08:41:32.100Z,99879.30
2023-02-11T08:46:38.684Z,99872.93
2023-02-11T08:51:57.444Z,99878.34
2023-02-11T08:57:56.663Z,99882.85
2023-02-11T09:03:05.695Z,99885.83
2023-02-11T09:08:12.950Z,99873.56
2023-02-11T09:14:10.027Z,99871.27
2023-02-11T09:20:14.038Z,99873.66
2023-02-11T09:25:52.031Z,99873.48
2023-02-11T09:32:16.583Z,99870.54
2023-02-11T09:37:40.761Z,99859.10
2023-02-11T09:43:48.562Z,99872.02
2023-02-11T09:49:28.416Z,99875.65
2023-02-11T09:54:56.605Z,99883.41
2023-02-11T10:00:37.438Z,99882.81
2023-02-11T10:06:26.471Z,99869.33
2023-02-11T10:12:16.836Z,99871.27
2023-02-11T10:18:13.541Z,99867.60
2023-02-11T10:23:34.950Z,99854.80
2023-02-11T10:28:47.844Z,99845.55
2023-02-11T10:34:42.257Z,99830.80
2023-02-11T10:39:48.579Z,99827.79
2023-02-11T10:45:03.113Z,99813.59
2023-02-11T10:50:33.562Z,99806.54
2023-02-11T10:55:38.211Z,99788.33
2023-02-11T11:01:24.235Z,99767.83
2023-02-11T11:06:56.759Z,99747.21
2023-02-11T11:12:00.454Z,99730.36
2023-02-11T11:17:18.384Z,99713.10
2023-02-11T11:22:46.484Z,99697.11
2023-02-11T11:27:56.845Z,99676.41
2023-02-11T11:33:04.611Z,99684.17
2023-02-11T11:38:14.511Z,99695.94
2023-02-11T11:43:23.278Z,99698.81
2023-02-11T11:48:38.860Z,99688.64
2023-02-11T11:54:08.974Z,99673.88
2023-02-11T11:59:17.144Z,99691.84
2023-02-11T12:04:26.692Z,99698.66
2023-02-11T12:09:40.415Z,99682.81
2023-02-11T12:15:16.983Z,99679.58
2023-02-11T12:20:30.351Z,99695.69
2023-02-11T12:26:11.428Z,99684.90
2023-02-11T12:31:49.833Z,99715.36
2023-02-11T12:37:16.138Z,99720.40
2023-02-11T12:42:40.975Z,99714.91
2023-02-11T12:47:57.580Z,99690.64
2023-02-11T12:53:58.193Z,99684.43
2023-02-11T12:59:14.237Z,99682.32
2023-02-11T13:04:39.554Z,99653.79
2023-02-11T13:09:55.595Z,99634.07
2023-02-11T13:15:13.765Z,99644.34
2023-02-11T13:20:52.122Z,99641.02
2023-02-11T13:26:21.680Z,99636.84
2023-02-11T13:31:27.670Z,99638.02
2023-02-11T13:36:33.467Z,99632.53
2023-02-11T13:41:41.404Z,99603.17
2023-02-11T13:46:59.837Z,99593.43
2023-02-11T13:52:19.364Z,99568.67
2023-02-11T13:57:35.724Z,99549.95
2023-02-11T14:03:00.272Z,99549.80
2023-02-11T14:08:28.873Z,99580.12
2023-02-11T14:13:37.136Z,99584.17
2023-02-11T14:18:55.953Z,99589.56
2023-02-11T14:24:39.861Z,99600.51
2023-02-11T14:30:20.124Z,99622.79
2023-02-11T14:36:10.374Z,99639.25
2023-02-11T14:41:54.253Z,99651.73
2023-02-11T14:47:21.420Z,99654.05
2023-02-11T14:52:33.073Z,99657.84
2023-02-11T14:57:38.029Z,99646.51
2023-02-11T15:02:43.886Z,99638.71
2023-02-11T15:07:54.390Z,99642.73
2023-02-11T15:12:59.071Z,99642.92
2023-02-11T15:18:22.954Z,99645.90
2023-02-11T15:23:28.285Z,99653.72
2023-02-11T15:28:34.626Z,99663.84
2023-02-11T15:33:38.135Z,99658.52
2023-02-11T15:38:41.789Z,99664.58
2023-02-11T15:43:49.008Z,99670.40
2023-02-11T15:48:53.926Z,99685.14
2023-02-11T15:54:09.900Z,99689.25
2023-02-11T15:59:30.753Z,99687.48
2023-02-11T16:04:34.285Z,99690.55
2023-02-11T16:09:37.849Z,99696.02
2023-02-11T16:14:41.136Z,99701.83
2023-02-11T16:19:48.243Z,99694.96
2023-02-11T16:24:53.667Z,99686.47
2023-02-11T16:29:57.982Z,99705.80
2023-02-11T16:35:02.024Z,99708.63
2023-02-11T16:40:06.098Z,99706.66
2023-02-11T16:45:10.143Z,99711.31
2023-02-11T16:50:22.252Z,99711.00
2023-02-11T16:55:25.792Z,99714.88
2023-02-11T17:00:29.449Z,99719.94
2023-02-11T17:05:42.770Z,99722.85
2023-02-11T17:10:53.233Z,99721.23
2023-02-11T17:16:09.400Z,99717.30
2023-02-11T17:21:13.044Z,99708.91
2023-02-11T17:26:16.595Z,99727.21
2023-02-11T17:31:20.002Z,99742.36
2023-02-11T17:36:24.774Z,99738.72
2023-02-11T17:41:36.407Z,99748.56
2023-02-11T17:46:39.816Z,99755.02
2023-02-11T17:51:46.528Z,99760.42
2023-02-11T17:56:50.967Z,99745.66
2023-02-11T18:01:56.702Z,99741.00
2023-02-11T18:07:00.160Z,99726.83
2023-02-11T18:12:04.273Z,99744.67
2023-02-11T18:17:07.972Z,99752.00
2023-02-11T18:22:14.601Z,99757.77
2023-02-11T18:27:18.162Z,99759.45
2023-02-11T18:32:21.522Z,99757.27
2023-02-11T18:37:38.837Z,99761.65
2023-02-11T18:42:51.913Z,99772.30
2023-02-11T18:47:55.915Z,99774.64
2023-02-11T18:52:59.489Z,99776.05
2023-02-11T18:58:03.161Z,99775.52
2023-02-11T19:03:09.570Z,99785.43
2023-02-11T19:08:15.567Z,99789.01
2023-02-11T19:13:19.121Z,99788.23
2023-02-11T19:18:22.928Z,99791.59
2023-02-11T19:23:26.530Z,99800.06
2023-02-11T19:28:30.959Z,99795.23
2023-02-11T19:33:42.273Z,99803.57
2023-02-11T19:38:45.809Z,99800.38
2023-02-11T19:43:56.845Z,99805.81
2023-02-11T19:49:03.417Z,99800.96
2023-02-11T19:54:07.604Z,99804.55
2023-02-11T19:59:11.181Z,99804.08
2023-02-11T20:04:15.553Z,99796.91
2023-02-11T20:09:22.883Z,99804.69
2023-02-11T20:14:28.026Z,99808.23
2023-02-11T20:19:31.956Z,99815.59
2023-02-11T20:24:35.700Z,99811.13
2023-02-11T20:29:42.096Z,99801.05
2023-02-11T20:34:45.592Z,99805.90
2023-02-11T20:39:52.081Z,99802.30
2023-02-11T20:44:55.520Z,99795.36
2023-02-11T20:49:59.205Z,99803.70
2023-02-11T20:55:09.061Z,99806.84
2023-02-11T21:00:13.554Z,99803.06
2023-02-11T21:05:17.217Z,99810.01
2023-02-11T21:10:20.692Z,99813.30
2023-02-11T21:15:24.453Z,99827.34
2023-02-11T21:20:28.856Z,99841.19
2023-02-11T21:25:35.611Z,99843.67
2023-02-11T21:30:42.065Z,99850.26
2023-02-11T21:35:45.747Z,99856.29
2023-02-11T21:40:59.110Z,99861.07
2023-02-11T21:46:09.828Z,99861.91
2023-02-11T21:51:15.905Z,99861.93
2023-02-11T21:56:19.626Z,99866.84
2023-02-11T22:01:58.913Z,99869.80
2023-02-11T22:07:03.508Z,99875.60
2023-02-11T22:12:09.006Z,99885.06
2023-02-11T22:17:15.479Z,99892.80
2023-02-11T22:22:19.867Z,99901.65
2023-02-11T22:27:23.525Z,99901.75
2023-02-11T22:32:27.213Z,99905.71
2023-02-11T22:37:31.158Z,99914.73
2023-02-11T22:42:45.459Z,99921.34
2023-02-11T22:47:55.314Z,99919.02
2023-02-11T22:53:01.877Z,99918.73
2023-02-11T22:58:11.010Z,99922.48
2023-02-11T23:03:22.053Z,99924.63
2023-02-11T23:08:26.189Z,99932.51
2023-02-11T23:13:51.912Z,99937.80
2023-02-11T23:18:59.163Z,99934.61
2023-02-11T23:24:09.518Z,99930.86
2023-02-11T23:29:41.842Z,99936.45
2023-02-11T23:34:45.350Z,99937.45
2023-02-11T23:39:48.983Z,99939.36
2023-02-11T23:44:53.821Z,99940.97
2023-02-11T23:50:04.815Z,99951.17
2023-02-11T23:55:09.254Z,99949.52
